Terminal Aerodrome Forecast
Issued by NWS

Home | Current Version | Previous Version | Text Only | Print | Product List | Glossary On
Versions: 1 2 3 4 5 6 7 8 9 10 11 12 13 14 15 16 17 18
000
FTUS43 KILX 312338
TAFBMI
TAF
KBMI 312338Z 0100/0124 18008KT 6SM HZ SKC
      TEMPO 0108/0112 1SM BR
     FM011200 20006KT 4SM BR BKN250
     FM011400 22008KT P6SM SKC=

USA.gov is the U.S. government's official web portal to all federal, state and local government web resources and services.